11 août 2022

Temps Code Temps Temp. Vue Base cloud Vent METAR/SPECI
09:00
V
27 °C 10 km+ - 130° 130° 11 kt METAR YHID 102300Z AUTO 13011KT 9999 // SCT018 27/22 Q1014 RF00.0/000.0
08:30
V
26 °C 10 km+ - 140° 140° 11 kt METAR YHID 102230Z AUTO 14011KT 9999 // SCT050 26/22 Q1013 RF00.0/000.0
08:00
V
25 °C 10 km+ 5.000 ft 150° 150° 10 kt METAR YHID 102200Z AUTO 15010KT 9999 // OVC050 25/22 Q1013 RF00.0/000.0
07:30
V
24 °C 10 km+ - 160° 160° 9 kt METAR YHID 102130Z AUTO 16009KT 9999 // SCT048 24/21 Q1013 RF00.0/000.0
07:00
V
24 °C 10 km+ - 150° 150° 10 kt METAR YHID 102100Z AUTO 15010KT 9999 // SCT050 24/21 Q1012 RF00.0/000.0
06:30
V
25 °C 10 km+ 5.200 ft 150° 150° 11 kt METAR YHID 102030Z AUTO 15011KT 9999 // OVC052 25/21 Q1012 RF00.0/000.0
06:00
V
25 °C 10 km+ 5.200 ft 160° 160° 11 kt METAR YHID 102000Z AUTO 16011KT 9999 // OVC052 25/21 Q1012 RF00.0/000.0
05:30
V
25 °C 10 km+ 5.400 ft 160° 160° 11 kt METAR YHID 101930Z AUTO 16011KT 9999 // SCT018 OVC054 25/21 Q1012
05:00
V
25 °C 10 km+ 5.400 ft 150° 150° 11 kt METAR YHID 101900Z AUTO 15011KT 9999 // OVC054 25/21 Q1012 RF00.0/000.0
04:30
V
25 °C 10 km+ - 150° 150° 10 kt METAR YHID 101830Z AUTO 15010KT 9999 // SCT021 25/21 Q1012 RF00.0/000.0
04:00
V
25 °C 10 km+ - 130° 130° 12 kt METAR YHID 101800Z AUTO 13012KT 9999 // NCD 25/21 Q1012 RF00.0/000.0
03:30
V
25 °C 10 km+ - 130° 130° 12 kt METAR YHID 101730Z AUTO 13012KT 9999 // NCD 25/21 Q1012 RF00.0/000.0
03:00
V
25 °C 10 km+ - 130° 130° 14 kt METAR YHID 101700Z AUTO 13014KT 9999 // NCD 25/21 Q1012 RF00.0/000.0
02:30
V
25 °C 10 km+ - 120° 120° 17 kt METAR YHID 101630Z AUTO 12017KT 9999 // SCT023 25/21 Q1012 RF00.0/000.0
02:00
V
25 °C 10 km+ - 120° 120° 16 kt METAR YHID 101600Z AUTO 12016KT 9999 // SCT021 SCT028 25/21 Q1012
01:30
V
25 °C 10 km+ - 130° 130° 15 kt METAR YHID 101530Z AUTO 13015KT 9999 // SCT026 25/21 Q1013 RF00.0/000.0
01:00
V
25 °C 10 km+ - 130° 130° 16 kt METAR YHID 101500Z AUTO 13016KT 9999 // NCD 25/20 Q1013 RF00.0/000.0
00:30
V
25 °C 10 km+ - 130° 130° 14 kt METAR YHID 101430Z AUTO 13014KT 9999 // NCD 25/20 Q1013 RF00.0/000.0
00:00
M
25 °C 10 km+ 2.300 ft 130° 130° 15 kt METAR YHID 101400Z AUTO 13015KT 9999 // BKN023 BKN032 25/21 Q1013

10 août 2022

Temps Code Temps Temp. Vue Base cloud Vent METAR/SPECI
23:30
M
25 °C 10 km+ 2.300 ft 140° 140° 14 kt METAR YHID 101330Z AUTO 14014KT 9999 // OVC023 OVC029 25/21 Q1014
23:00
M
25 °C 10 km+ 2.300 ft 140° 140° 13 kt METAR YHID 101300Z AUTO 14013KT 9999 // BKN023 BKN029 25/20 Q1014
22:30
M
25 °C 10 km+ 2.700 ft 130° 130° 13 kt METAR YHID 101230Z AUTO 13013KT 9999 // BKN027 25/21 Q1014 RF00.0/000.0
22:00
V
25 °C 10 km+ 6.300 ft 130° 130° 12 kt METAR YHID 101200Z AUTO 13012KT 9999 // SCT024 SCT033 OVC063 25/21 Q1014
21:30
V
25 °C 10 km+ 6.300 ft 140° 140° 15 kt METAR YHID 101130Z AUTO 14015KT 9999 // SCT021 SCT031 OVC063 25/21 Q1014
21:13
M
25 °C 10 km+ 2.100 ft 130° 130° 15 - 29 kt METAR YHID 101113Z AUTO 13015G29KT 9999 // BKN021 BKN037 OVC061 25/21 Q1014
21:00
V
25 °C 10 km+ 3.700 ft 140° 140° 11 kt METAR YHID 101100Z AUTO 14011KT 9999 // SCT021 SCT031 BKN037 25/21 Q1013
20:30
V
25 °C 10 km+ - 140° 140° 12 - 22 kt METAR YHID 101030Z AUTO 14012G22KT 9999 // NCD 25/21 Q1013 RF00.0/000.0
20:19
V
25 °C 10 km+ - 140° 140° 15 - 25 kt METAR YHID 101019Z AUTO 14015G25KT 9999 // SCT056 25/20 Q1013 RF00.0/000.0
20:00
V
25 °C 10 km+ - 130° 130° 12 kt METAR YHID 101000Z AUTO 13012KT 9999 // SCT022 SCT031 SCT043 25/20 Q1013
19:30
V
25 °C 10 km+ 4.300 ft 130° 130° 14 kt METAR YHID 100930Z AUTO 13014KT 9999 // OVC043 25/20 Q1012 RF00.0/000.0
19:00
V
26 °C 10 km+ 3.900 ft 130° 130° 16 kt METAR YHID 100900Z AUTO 13016KT 9999 // OVC039 26/20 Q1012 RF00.0/000.0
18:30
V
26 °C 10 km+ 3.100 ft 130° 130° 13 kt METAR YHID 100830Z AUTO 13013KT 9999 // SCT026 BKN031 OVC039 26/20 Q1012
18:00
M
26 °C 10 km+ 2.900 ft 130° 130° 15 kt METAR YHID 100800Z AUTO 13015KT 9999 // BKN029 BKN036 OVC041 26/20 Q1011
17:30
V
27 °C 10 km+ 3.400 ft 120° 120° 16 kt METAR YHID 100730Z AUTO 12016KT 9999 // OVC034 27/20 Q1011 RF00.0/000.0
17:10
V
27 °C 10 km+ 3.200 ft 120° 120° 16 - 26 kt METAR YHID 100710Z AUTO 12016G26KT 9999 // BKN032 27/20 Q1011 RF00.0/000.0
17:00
V
27 °C 10 km+ 3.200 ft 120° 120° 18 kt METAR YHID 100700Z AUTO 12018KT 9999 // BKN032 27/19 Q1011 RF00.0/000.0
16:30
V
28 °C 10 km+ 3.200 ft 120° 120° 19 kt METAR YHID 100630Z AUTO 12019KT 9999 // BKN032 28/20 Q1011 RF00.0/000.0
16:00
V
29 °C 10 km+ - 120° 120° 16 kt METAR YHID 100600Z AUTO 12016KT 9999 // SCT030 29/20 Q1011 RF00.0/000.0
15:35
V
28 °C 10 km+ - 130° 130° 18 - 28 kt METAR YHID 100535Z AUTO 13018G28KT 9999 // NCD 28/20 Q1010 RF00.0/000.0
15:00
V
29 °C 10 km+ - 120° 120° 21 kt METAR YHID 100500Z AUTO 12021KT 9999 // NCD 29/20 Q1011 RF00.0/000.0
14:30
V
28 °C 10 km+ - 110° 110° 21 kt METAR YHID 100430Z AUTO 11021KT 9999 // SCT030 28/20 Q1011 RF00.0/000.0
14:20
V
28 °C 10 km+ - 120° 120° 21 - 31 kt METAR YHID 100420Z AUTO 12021G31KT 9999 // SCT030 28/20 Q1011 RF00.0/000.0
14:00
V
29 °C 10 km+ - 120° 120° 21 kt METAR YHID 100400Z AUTO 12021KT 9999 // NCD 29/20 Q1011 RF00.0/000.0
13:30
V
29 °C 10 km+ - 120° 120° 20 kt METAR YHID 100330Z AUTO 12020KT 9999 // SCT033 29/20 Q1011 RF00.0/000.0
13:00
V
29 °C 10 km+ 3.100 ft 120° 120° 21 kt METAR YHID 100300Z AUTO 12021KT 9999 // BKN031 29/20 Q1012 RF00.0/000.0
12:30
V
28 °C 10 km+ - 130° 130° 21 kt METAR YHID 100230Z AUTO 13021KT 9999 // SCT031 SCT036 28/20 Q1012
12:00
V
28 °C 10 km+ - 130° 130° 20 kt METAR YHID 100200Z AUTO 13020KT 9999 // SCT033 28/20 Q1012 RF00.0/000.0
11:46
V
28 °C 10 km+ - 130° 130° 19 - 29 kt METAR YHID 100146Z AUTO 13019G29KT 9999 // SCT033 28/20 Q1012 RF00.0/000.0
11:30
V
28 °C 10 km+ - 120° 120° 17 kt METAR YHID 100130Z AUTO 12017KT 9999 // SCT035 SCT040 28/20 Q1013
11:00
V
28 °C 10 km+ 3.500 ft 120° 120° 19 kt METAR YHID 100100Z AUTO 12019KT 9999 // BKN035 BKN041 28/20 Q1013
10:30
V
28 °C 10 km+ 3.500 ft 120° 120° 21 kt METAR YHID 100030Z AUTO 12021KT 9999 // BKN035 28/20 Q1013 RF00.0/000.0
10:00
V
28 °C 10 km+ 3.700 ft 130° 130° 18 kt METAR YHID 100000Z AUTO 13018KT 9999 // SCT022 SCT027 BKN037 28/21 Q1013
09:30
V
28 °C 10 km+ 3.900 ft 120° 120° 18 kt METAR YHID 092330Z AUTO 12018KT 9999 // SCT022 SCT033 BKN039 28/21 Q1013
09:00
V
27 °C 10 km+ 3.300 ft 110° 110° 17 kt METAR YHID 092300Z AUTO 11017KT 9999 // SCT024 OVC033 27/21 Q1013
08:30
V
26 °C 10 km+ 3.300 ft 120° 120° 14 kt METAR YHID 092230Z AUTO 12014KT 9999 // SCT022 BKN033 OVC038 26/21 Q1013
08:00
V
26 °C 10 km+ 3.100 ft 130° 130° 14 kt METAR YHID 092200Z AUTO 13014KT 9999 // SCT022 BKN031 26/21 Q1013
07:30
V
26 °C 10 km+ - 130° 130° 14 kt METAR YHID 092130Z AUTO 13014KT 9999 // SCT040 26/21 Q1013 RF00.0/000.8
07:00
V
25 °C 10 km+ 4.000 ft 120° 120° 14 kt METAR YHID 092100Z AUTO 12014KT 9999 // SCT020 SCT034 OVC040 25/20 Q1012
06:30
M
25 °C 10 km+ 2.000 ft 120° 120° 12 kt METAR YHID 092030Z AUTO 12012KT 9999 // BKN020 OVC029 25/21 Q1012
06:00
V
25 °C 10 km+ 3.300 ft 130° 130° 14 kt METAR YHID 092000Z AUTO 13014KT 9999 // SCT020 OVC033 25/21 Q1012
05:30
M
25 °C 10 km+ 2.000 ft 130° 130° 13 kt METAR YHID 091930Z AUTO 13013KT 9999 // BKN020 BKN028 BKN033 25/21 Q1012
05:00
M
25 °C 10 km+ 2.200 ft 130° 130° 11 kt METAR YHID 091900Z AUTO 13011KT 9999 // BKN022 BKN027 OVC038 25/21 Q1011
04:30
M
25 °C 10 km+ 2.200 ft 120° 120° 13 kt METAR YHID 091830Z AUTO 12013KT 9999 // BKN022 BKN029 OVC036 25/21 Q1011
04:00
M
25 °C 10 km+ 2.200 ft 130° 130° 12 kt METAR YHID 091800Z AUTO 13012KT 9999 // BKN022 OVC031 25/21 Q1011
03:30
V
25 °C 10 km+ 3.100 ft 130° 130° 14 kt METAR YHID 091730Z AUTO 13014KT 9999 // SCT022 OVC031 25/21 Q1011
03:00
M
25 °C 10 km+ 2.200 ft 130° 130° 15 kt METAR YHID 091700Z AUTO 13015KT 9999 // BKN022 OVC029 25/21 Q1011
02:30
M
26 °C 10 km+ 2.200 ft 130° 130° 14 kt METAR YHID 091630Z AUTO 13014KT 9999 // BKN022 OVC027 26/21 Q1012
02:00
M
26 °C 10 km+ 2.200 ft 130° 130° 16 kt METAR YHID 091600Z AUTO 13016KT 9999 // BKN022 OVC029 26/21 Q1012
01:34
M
26 °C 10 km+ 2.200 ft 130° 130° 15 - 25 kt METAR YHID 091534Z AUTO 13015G25KT 9999 // BKN022 OVC029 26/21 Q1012
01:00
M
26 °C 10 km+ 2.200 ft 130° 130° 16 kt METAR YHID 091500Z AUTO 13016KT 9999 // BKN022 OVC029 26/21 Q1012
00:30
M
25 °C 10 km+ 2.200 ft 130° 130° 14 kt METAR YHID 091430Z AUTO 13014KT 9999 // BKN022 OVC031 25/21 Q1012
00:00
M
26 °C 10 km+ 2.400 ft 130° 130° 17 kt METAR YHID 091400Z AUTO 13017KT 9999 // BKN024 OVC032 26/21 Q1012

9 août 2022

Temps Code Temps Temp. Vue Base cloud Vent METAR/SPECI
23:30
M
26 °C 10 km+ 2.400 ft 130° 130° 14 kt METAR YHID 091330Z AUTO 13014KT 9999 // BKN024 OVC034 26/21 Q1012
23:00
M
26 °C 10 km+ 2.400 ft 130° 130° 14 kt METAR YHID 091300Z AUTO 13014KT 9999 // BKN024 OVC034 26/21 Q1012
22:30
V
26 °C 10 km+ 6.500 ft 130° 130° 17 kt METAR YHID 091230Z AUTO 13017KT 9999 // SCT022 SCT034 OVC065 26/21 Q1013
22:00
V
26 °C 10 km+ 3.000 ft 130° 130° 15 kt METAR YHID 091200Z AUTO 13015KT 9999 // SCT022 BKN030 OVC063 26/22 Q1012
21:30
V
26 °C 10 km+ 6.300 ft 140° 140° 15 kt METAR YHID 091130Z AUTO 14015KT 9999 // OVC063 26/21 Q1012 RF00.0/000.8
21:00
V
26 °C 10 km+ 6.300 ft 140° 140° 17 kt METAR YHID 091100Z AUTO 14017KT 9999 // SCT024 OVC063 26/21 Q1012
20:30
V
26 °C 10 km+ 6.100 ft 140° 140° 16 kt METAR YHID 091030Z AUTO 14016KT 9999 // SCT024 OVC061 26/21 Q1012
20:02
M
26 °C 10 km+ 2.600 ft 130° 130° 15 - 25 kt METAR YHID 091002Z AUTO 13015G25KT 9999 // SCT022 BKN026 OVC057 26/22 Q1011
19:30
V
26 °C 10 km+ - 130° 130° 16 kt METAR YHID 090930Z AUTO 13016KT 9999 // SCT022 SCT030 SCT045 26/22 Q1011
19:00
V
26 °C 10 km+ 3.500 ft 130° 130° 16 kt METAR YHID 090900Z AUTO 13016KT 9999 // SCT024 BKN035 OVC047 26/22 Q1011
18:30
V
26 °C 10 km+ 3.300 ft 130° 130° 16 kt METAR YHID 090830Z AUTO 13016KT 9999 // SCT024 BKN033 BKN037 26/21 Q1010
18:09
V
27 °C 10 km+ 3.300 ft 130° 130° 15 - 25 kt METAR YHID 090809Z AUTO 13015G25KT 9999 // SCT022 BKN033 OVC043 27/22 Q1010
17:48
V
27 °C 10 km+ 4.400 ft 120° 120° 17 - 27 kt METAR YHID 090748Z AUTO 12017G27KT 9999 // SCT022 SCT033 BKN044 27/22 Q1010
17:30
V
27 °C 10 km+ 4.400 ft 130° 130° 20 kt METAR YHID 090730Z AUTO 13020KT 9999 // SCT024 SCT029 BKN044 27/22 Q1010
17:23
V
27 °C 10 km+ 4.400 ft 120° 120° 17 - 27 kt METAR YHID 090723Z AUTO 12017G27KT 9999 // SCT024 SCT030 OVC044 27/21 Q1010
17:00
V
28 °C 10 km+ 4.400 ft 130° 130° 17 kt METAR YHID 090700Z AUTO 13017KT 9999 // SCT026 OVC044 28/22 Q1009
16:44
M
28 °C 10 km+ 2.600 ft 120° 120° 19 - 30 kt METAR YHID 090644Z AUTO 12019G30KT 9999 // BKN026 OVC044 28/22 Q1009
16:30
M
28 °C 10 km+ 2.600 ft 120° 120° 18 kt METAR YHID 090630Z AUTO 12018KT 9999 // BKN026 OVC035 28/22 Q1009
16:00
V
29 °C 10 km+ 3.200 ft 120° 120° 17 kt METAR YHID 090600Z AUTO 12017KT 9999 // SCT026 BKN032 29/22 Q1009
15:30
M
28 °C 10 km+ 2.900 ft 120° 120° 19 kt METAR YHID 090530Z AUTO 12019KT 9999 // SCT024 BKN029 28/22 Q1009
15:00
V
28 °C 10 km+ 3.300 ft 120° 120° 17 kt METAR YHID 090500Z AUTO 12017KT 9999 // SCT024 BKN033 OVC041 28/23 Q1009
14:30
V
29 °C 10 km+ 3.100 ft 110° 110° 19 kt METAR YHID 090430Z AUTO 11019KT 9999 // SCT026 BKN031 BKN039 29/22 Q1009
14:00
M
28 °C 10 km+ 2.600 ft 120° 120° 18 kt METAR YHID 090400Z AUTO 12018KT 9999 // SCT020 BKN026 OVC033 28/23 Q1010
13:30
V
28 °C 10 km+ - 110° 110° 16 kt METAR YHID 090330Z AUTO 11016KT 9999 // SCT048 SCT066 28/23 Q1010
13:16
V
26 °C 10 km+ 4.800 ft 110° 110° 15 kt METAR YHID 090316Z AUTO 11015KT 9999 // SCT019 SCT039 BKN048 26/24 Q1010
13:00
M
25 °C 5 km 2.300 ft 120° 120° 17 kt METAR YHID 090300Z AUTO 12017KT 5000 -DZ HZ SCT015 OVC023 OVC038 25/23 Q1011
12:58
M
26 °C 5 km 2.300 ft 120° 120° 16 kt METAR YHID 090258Z AUTO 12016KT 5000 -RA SCT015 OVC023 26/23 Q1011
12:30
M
27 °C 10 km+ 2.200 ft 110° 110° 16 kt METAR YHID 090230Z AUTO 11016KT 9999 // SCT019 BKN022 BKN029 27/23 Q1011
12:00
V
27 °C 10 km+ 3.700 ft 110° 110° 14 kt METAR YHID 090200Z AUTO 11014KT 9999 // SCT012 SCT028 BKN037 27/23 Q1011
11:49
V
26 °C 10 km+ 3.000 ft 110° 110° 18 kt METAR YHID 090149Z AUTO 11018KT 9999 -SHRA SCT010 SCT024 BKN030 26/23 Q1011
11:31
M
25 °C 5 km 2.500 ft 120° 120° 16 - 26 kt METAR YHID 090131Z AUTO 12016G26KT 5000 HZ SCT008 SCT018 BKN025 25/23 Q1012
11:14
M
25 °C 5 km 1.800 ft 110° 110° 17 kt METAR YHID 090114Z AUTO 11017KT 5000 HZ SCT010 BKN018 BKN024 25/23 Q1012
11:00
V
26 °C 10 km+ 3.300 ft 110° 110° 17 kt METAR YHID 090100Z AUTO 11017KT 9999 // SCT012 SCT024 BKN033 26/23 Q1012
10:37
M
25 °C 10 km+ 1.700 ft 110° 110° 18 kt METAR YHID 090037Z AUTO 11018KT 9999 // SCT008 BKN017 BKN027 25/24 Q1012
10:30
I
25 °C 10 km+ 800 ft 110° 110° 19 kt METAR YHID 090030Z AUTO 11019KT 9999 -SHRA BKN008 BKN014 BKN025 25/23 Q1012
10:23
M
25 °C 6 km 1.400 ft 110° 110° 17 kt METAR YHID 090023Z AUTO 11017KT 6000 -SHRA SCT010 BKN014 OVC043 25/23 Q1012
10:08
M
25 °C 5 km 1.600 ft 110° 110° 17 kt METAR YHID 090008Z AUTO 11017KT 5000 -RA SCT010 BKN016 BKN022 25/23 Q1012
09:30
V
27 °C 10 km+ - 110° 110° 15 kt METAR YHID 082330Z AUTO 11015KT 9999 // SCT010 SCT016 SCT032 27/24 Q1012
09:20
M
26 °C 10 km+ 1.800 ft 110° 110° 16 kt METAR YHID 082320Z AUTO 11016KT 9999 // SCT010 BKN018 BKN032 26/24 Q1012
09:00
I
25 °C 3,2 km 1.600 ft 120° 120° 16 kt METAR YHID 082300Z AUTO 12016KT 3200 -DZ HZ SCT011 BKN016 BKN023 25/23 Q1012
08:57
M
25 °C 5 km 1.600 ft 120° 120° 16 kt METAR YHID 082257Z AUTO 12016KT 5000 HZ SCT009 BKN016 BKN023 25/23 Q1012
08:30
M
25 °C 9 km 1.400 ft 130° 130° 12 kt METAR YHID 082230Z AUTO 13012KT 9000 // SCT007 BKN014 OVC019 25/23 Q1012
08:19
M
26 °C 10 km+ 1.400 ft 110° 110° 12 kt METAR YHID 082219Z AUTO 11012KT 9999 // BKN014 BKN020 OVC040 26/23 Q1012
08:00
V
27 °C 10 km+ 4.000 ft 120° 120° 14 kt METAR YHID 082200Z AUTO 12014KT 9999 // SCT016 SCT020 OVC040 27/22 Q1011
07:30
M
26 °C 10 km+ 1.800 ft 130° 130° 13 kt METAR YHID 082130Z AUTO 13013KT 9999 // BKN018 BKN025 BKN038 26/23 Q1011
07:00
M
26 °C 10 km+ 2.000 ft 120° 120° 10 kt METAR YHID 082100Z AUTO 12010KT 9999 // SCT016 BKN020 OVC041 26/23 Q1011
06:30
V
25 °C 10 km+ - 130° 130° 11 kt METAR YHID 082030Z AUTO 13011KT 9999 // SCT014 SCT032 25/23 Q1010
06:00
V
25 °C 10 km+ 3.100 ft 130° 130° 12 kt METAR YHID 082000Z AUTO 13012KT 9999 // SCT018 BKN031 BKN042 25/22 Q1010
05:30
V
25 °C 10 km+ 3.800 ft 130° 130° 13 kt METAR YHID 081930Z AUTO 13013KT 9999 // SCT018 BKN038 25/22 Q1010
05:00
V
25 °C 10 km+ - 120° 120° 11 kt METAR YHID 081900Z AUTO 12011KT 9999 // SCT016 SCT027 SCT032 25/22 Q1010
04:30
V
26 °C 10 km+ 3.000 ft 110° 110° 12 kt METAR YHID 081830Z AUTO 11012KT 9999 // SCT020 BKN030 OVC042 26/22 Q1010
04:00
M
25 °C 10 km+ 2.400 ft 150° 150° 8 kt METAR YHID 081800Z AUTO 15008KT 9999 // SCT020 BKN024 OVC030 25/22 Q1010
03:30
M
25 °C 10 km+ 2.500 ft 140° 140° 9 kt METAR YHID 081730Z AUTO 14009KT 9999 // SCT020 BKN025 OVC029 25/22 Q1010
03:00
M
25 °C 10 km+ 1.800 ft 150° 150° 9 kt METAR YHID 081700Z AUTO 15009KT 9999 // BKN018 BKN025 BKN030 25/22 Q1010
02:30
M
25 °C 10 km+ 2.100 ft 150° 150° 9 kt METAR YHID 081630Z AUTO 15009KT 9999 // BKN021 BKN028 OVC034 25/23 Q1010
02:00
M
25 °C 10 km+ 1.900 ft 160° 160° 8 kt METAR YHID 081600Z AUTO 16008KT 9999 // BKN019 BKN024 BKN030 25/22 Q1010
01:30
M
25 °C 10 km+ 2.100 ft 150° 150° 9 kt METAR YHID 081530Z AUTO 15009KT 9999 // BKN021 OVC026 25/22 Q1011
01:00
M
25 °C 10 km+ 2.100 ft 150° 150° 9 kt METAR YHID 081500Z AUTO 15009KT 9999 // BKN021 OVC026 25/22 Q1011
Données plus anciennes

Nous et des tiers suivons ton comportement sur Internet sur notre site Web à l'aide de cookies. Si tu continues, nous supposons que tu acceptes notre politique en matière de cookies. Apprendre plus